sensor_id;sensor_type;location;lat;lon;timestamp;pressure;altitude;pressure_sealevel;temperature;humidity
16100;BME280;8154;50.830;12.082;2023-11-19T00:00:07;99214.97;;;21.60;39.35
16100;BME280;8154;50.830;12.082;2023-11-19T00:02:41;99220.94;;;21.62;39.37
16100;BME280;8154;50.830;12.082;2023-11-19T00:05:08;99227.59;;;21.51;39.70
16100;BME280;8154;50.830;12.082;2023-11-19T00:07:35;99224.00;;;21.44;39.79
16100;BME280;8154;50.830;12.082;2023-11-19T00:10:03;99223.28;;;21.50;39.69
16100;BME280;8154;50.830;12.082;2023-11-19T00:12:38;99223.91;;;21.52;39.58
16100;BME280;8154;50.830;12.082;2023-11-19T00:15:05;99218.22;;;21.55;39.54
16100;BME280;8154;50.830;12.082;2023-11-19T00:17:32;99201.69;;;21.60;39.50
16100;BME280;8154;50.830;12.082;2023-11-19T00:19:58;99192.72;;;21.61;39.51
16100;BME280;8154;50.830;12.082;2023-11-19T00:22:24;99201.06;;;21.58;39.55
16100;BME280;8154;50.830;12.082;2023-11-19T00:24:51;99205.25;;;21.67;39.28
16100;BME280;8154;50.830;12.082;2023-11-19T00:27:17;99200.75;;;21.67;39.26
16100;BME280;8154;50.830;12.082;2023-11-19T00:29:44;99166.63;;;21.50;39.30
16100;BME280;8154;50.830;12.082;2023-11-19T00:32:10;99190.63;;;21.56;39.44
16100;BME280;8154;50.830;12.082;2023-11-19T00:34:37;99163.44;;;21.40;39.73
16100;BME280;8154;50.830;12.082;2023-11-19T00:37:03;99159.72;;;21.34;40.00
16100;BME280;8154;50.830;12.082;2023-11-19T00:39:30;99150.41;;;21.45;39.77
16100;BME280;8154;50.830;12.082;2023-11-19T00:41:56;99157.44;;;21.52;39.58
16100;BME280;8154;50.830;12.082;2023-11-19T00:44:22;99149.72;;;21.57;39.36
16100;BME280;8154;50.830;12.082;2023-11-19T00:46:49;99156.28;;;21.61;39.39
16100;BME280;8154;50.830;12.082;2023-11-19T00:49:15;99140.78;;;21.65;39.36
16100;BME280;8154;50.830;12.082;2023-11-19T00:51:41;99110.47;;;21.59;39.17
16100;BME280;8154;50.830;12.082;2023-11-19T00:54:07;99134.16;;;21.75;38.96
16100;BME280;8154;50.830;12.082;2023-11-19T00:56:34;99126.09;;;21.69;39.03
16100;BME280;8154;50.830;12.082;2023-11-19T00:59:00;99113.13;;;21.59;39.20
16100;BME280;8154;50.830;12.082;2023-11-19T01:01:26;99081.34;;;21.51;39.38
16100;BME280;8154;50.830;12.082;2023-11-19T01:03:54;99104.31;;;21.59;39.28
16100;BME280;8154;50.830;12.082;2023-11-19T01:06:30;99094.50;;;21.59;39.37
16100;BME280;8154;50.830;12.082;2023-11-19T01:08:56;99090.00;;;21.60;39.30
16100;BME280;8154;50.830;12.082;2023-11-19T01:11:25;99093.47;;;21.60;39.24
16100;BME280;8154;50.830;12.082;2023-11-19T01:13:52;99090.81;;;21.60;39.20
16100;BME280;8154;50.830;12.082;2023-11-19T01:16:18;99085.44;;;21.54;39.40
16100;BME280;8154;50.830;12.082;2023-11-19T01:18:49;99069.56;;;21.60;39.27
16100;BME280;8154;50.830;12.082;2023-11-19T01:21:15;99049.78;;;21.69;39.02
16100;BME280;8154;50.830;12.082;2023-11-19T01:23:42;99056.75;;;21.70;39.09
16100;BME280;8154;50.830;12.082;2023-11-19T01:26:10;99046.06;;;21.64;39.00
16100;BME280;8154;50.830;12.082;2023-11-19T01:28:38;99042.13;;;21.60;39.18
16100;BME280;8154;50.830;12.082;2023-11-19T01:31:11;99047.06;;;21.63;39.25
16100;BME280;8154;50.830;12.082;2023-11-19T01:33:39;99023.88;;;21.50;39.32
16100;BME280;8154;50.830;12.082;2023-11-19T01:36:06;99016.41;;;21.39;39.69
16100;BME280;8154;50.830;12.082;2023-11-19T01:38:34;99017.22;;;21.40;39.46
16100;BME280;8154;50.830;12.082;2023-11-19T01:41:01;99033.47;;;21.51;39.39
16100;BME280;8154;50.830;12.082;2023-11-19T01:43:32;99032.25;;;21.54;39.33
16100;BME280;8154;50.830;12.082;2023-11-19T01:46:03;99036.41;;;21.56;39.17
16100;BME280;8154;50.830;12.082;2023-11-19T01:48:31;99033.97;;;21.61;39.04
16100;BME280;8154;50.830;12.082;2023-11-19T01:51:00;99029.91;;;21.65;39.02
16100;BME280;8154;50.830;12.082;2023-11-19T01:53:27;99024.00;;;21.70;38.88
16100;BME280;8154;50.830;12.082;2023-11-19T01:55:54;99017.81;;;21.63;39.02
16100;BME280;8154;50.830;12.082;2023-11-19T01:58:21;99002.25;;;21.60;39.04
16100;BME280;8154;50.830;12.082;2023-11-19T02:00:48;98994.91;;;21.62;39.02
16100;BME280;8154;50.830;12.082;2023-11-19T02:03:17;98990.41;;;21.62;39.02
16100;BME280;8154;50.830;12.082;2023-11-19T02:05:44;98989.59;;;21.62;39.04
16100;BME280;8154;50.830;12.082;2023-11-19T02:08:11;98981.41;;;21.63;39.01
16100;BME280;8154;50.830;12.082;2023-11-19T02:10:39;98976.09;;;21.63;39.03
16100;BME280;8154;50.830;12.082;2023-11-19T02:13:05;98981.84;;;21.67;38.91
16100;BME280;8154;50.830;12.082;2023-11-19T02:15:33;98968.31;;;21.62;39.00
16100;BME280;8154;50.830;12.082;2023-11-19T02:18:22;98962.00;;;21.69;38.81
16100;BME280;8154;50.830;12.082;2023-11-19T02:20:50;98966.13;;;21.72;38.81
16100;BME280;8154;50.830;12.082;2023-11-19T02:23:19;98961.34;;;21.61;38.90
16100;BME280;8154;50.830;12.082;2023-11-19T02:28:36;98946.38;;;21.53;39.25
16100;BME280;8154;50.830;12.082;2023-11-19T02:31:03;98958.94;;;21.38;39.53
16100;BME280;8154;50.830;12.082;2023-11-19T02:33:31;98933.63;;;21.42;39.51
16100;BME280;8154;50.830;12.082;2023-11-19T02:35:57;98924.19;;;21.40;39.40
16100;BME280;8154;50.830;12.082;2023-11-19T02:38:26;98909.97;;;21.54;39.17
16100;BME280;8154;50.830;12.082;2023-11-19T02:40:52;98905.06;;;21.57;39.07
16100;BME280;8154;50.830;12.082;2023-11-19T02:43:19;98917.78;;;21.62;38.94
16100;BME280;8154;50.830;12.082;2023-11-19T02:45:46;98906.50;;;21.60;39.03
16100;BME280;8154;50.830;12.082;2023-11-19T02:48:12;98893.47;;;21.65;38.90
16100;BME280;8154;50.830;12.082;2023-11-19T02:50:42;98875.03;;;21.63;38.98
16100;BME280;8154;50.830;12.082;2023-11-19T02:53:09;98868.47;;;21.59;39.24
16100;BME280;8154;50.830;12.082;2023-11-19T02:55:36;98868.47;;;21.59;39.15
16100;BME280;8154;50.830;12.082;2023-11-19T02:58:06;98859.47;;;21.60;39.05
16100;BME280;8154;50.830;12.082;2023-11-19T03:00:45;98864.19;;;21.65;39.00
16100;BME280;8154;50.830;12.082;2023-11-19T03:03:21;98840.81;;;21.54;39.03
16100;BME280;8154;50.830;12.082;2023-11-19T03:05:49;98849.78;;;21.46;39.29
16100;BME280;8154;50.830;12.082;2023-11-19T03:08:15;98847.53;;;21.43;39.46
16100;BME280;8154;50.830;12.082;2023-11-19T03:10:43;98861.91;;;21.55;39.14
16100;BME280;8154;50.830;12.082;2023-11-19T03:13:13;98863.38;;;21.64;38.99
16100;BME280;8154;50.830;12.082;2023-11-19T03:15:41;98856.03;;;21.66;38.89
16100;BME280;8154;50.830;12.082;2023-11-19T03:18:07;98835.19;;;21.70;38.73
16100;BME280;8154;50.830;12.082;2023-11-19T03:20:35;98832.91;;;21.67;38.83
16100;BME280;8154;50.830;12.082;2023-11-19T03:23:01;98821.41;;;21.60;38.99
16100;BME280;8154;50.830;12.082;2023-11-19T03:25:29;98814.28;;;21.60;38.94
16100;BME280;8154;50.830;12.082;2023-11-19T03:28:02;98828.41;;;21.61;38.99
16100;BME280;8154;50.830;12.082;2023-11-19T03:30:30;98834.50;;;21.61;39.05
16100;BME280;8154;50.830;12.082;2023-11-19T03:32:57;98843.31;;;21.62;39.08
16100;BME280;8154;50.830;12.082;2023-11-19T03:35:24;98833.44;;;21.49;39.22
16100;BME280;8154;50.830;12.082;2023-11-19T03:37:50;98845.75;;;21.50;39.21
16100;BME280;8154;50.830;12.082;2023-11-19T03:40:17;98834.72;;;21.60;39.02
16100;BME280;8154;50.830;12.082;2023-11-19T03:42:46;98838.25;;;21.67;38.87
16100;BME280;8154;50.830;12.082;2023-11-19T03:45:13;98830.03;;;21.62;38.79
16100;BME280;8154;50.830;12.082;2023-11-19T03:47:40;98841.34;;;21.70;38.75
16100;BME280;8154;50.830;12.082;2023-11-19T03:50:07;98832.25;;;21.58;38.99
16100;BME280;8154;50.830;12.082;2023-11-19T03:52:34;98834.13;;;21.58;39.11
16100;BME280;8154;50.830;12.082;2023-11-19T03:55:01;98819.59;;;21.60;39.06
16100;BME280;8154;50.830;12.082;2023-11-19T03:57:30;98822.25;;;21.60;39.08
16100;BME280;8154;50.830;12.082;2023-11-19T03:59:56;98799.63;;;21.37;39.29
16100;BME280;8154;50.830;12.082;2023-11-19T04:02:25;98823.75;;;21.35;39.60
16100;BME280;8154;50.830;12.082;2023-11-19T04:04:54;98832.22;;;21.45;39.35
16100;BME280;8154;50.830;12.082;2023-11-19T04:07:21;98817.09;;;21.52;39.23
16100;BME280;8154;50.830;12.082;2023-11-19T04:09:47;98816.31;;;21.58;39.04
16100;BME280;8154;50.830;12.082;2023-11-19T04:12:14;98803.25;;;21.63;38.95
16100;BME280;8154;50.830;12.082;2023-11-19T04:14:40;98803.03;;;21.65;39.02
16100;BME280;8154;50.830;12.082;2023-11-19T04:17:06;98796.44;;;21.48;39.32
16100;BME280;8154;50.830;12.082;2023-11-19T04:19:33;98788.41;;;21.41;39.39
16100;BME280;8154;50.830;12.082;2023-11-19T04:21:59;98810.78;;;21.53;39.15
16100;BME280;8154;50.830;12.082;2023-11-19T04:24:25;98804.03;;;21.57;39.18
16100;BME280;8154;50.830;12.082;2023-11-19T04:26:51;98803.22;;;21.57;39.14
16100;BME280;8154;50.830;12.082;2023-11-19T04:29:18;98795.22;;;21.50;39.33
16100;BME280;8154;50.830;12.082;2023-11-19T04:31:47;98795.78;;;21.46;39.38
16100;BME280;8154;50.830;12.082;2023-11-19T04:34:13;98802.97;;;21.45;39.44
16100;BME280;8154;50.830;12.082;2023-11-19T04:36:39;98791.13;;;21.54;39.27
16100;BME280;8154;50.830;12.082;2023-11-19T04:39:07;98792.16;;;21.60;39.18
16100;BME280;8154;50.830;12.082;2023-11-19T04:41:46;98775.63;;;21.58;39.05
16100;BME280;8154;50.830;12.082;2023-11-19T04:44:15;98768.44;;;21.58;38.83
16100;BME280;8154;50.830;12.082;2023-11-19T04:46:42;98783.56;;;21.51;39.26
16100;BME280;8154;50.830;12.082;2023-11-19T04:49:13;98779.69;;;21.47;39.36
16100;BME280;8154;50.830;12.082;2023-11-19T04:51:41;98781.34;;;21.55;39.38
16100;BME280;8154;50.830;12.082;2023-11-19T04:54:08;98781.94;;;21.57;39.28
16100;BME280;8154;50.830;12.082;2023-11-19T04:56:36;98762.72;;;21.61;39.13
16100;BME280;8154;50.830;12.082;2023-11-19T04:59:04;98746.56;;;21.56;38.99
16100;BME280;8154;50.830;12.082;2023-11-19T05:01:33;98754.75;;;21.61;39.05
16100;BME280;8154;50.830;12.082;2023-11-19T05:03:59;98706.66;;;21.50;39.09
16100;BME280;8154;50.830;12.082;2023-11-19T05:06:27;98748.41;;;21.56;39.28
16100;BME280;8154;50.830;12.082;2023-11-19T05:08:56;98743.91;;;21.56;39.19
16100;BME280;8154;50.830;12.082;2023-11-19T05:11:25;98730.25;;;21.66;39.02
16100;BME280;8154;50.830;12.082;2023-11-19T05:13:51;98718.53;;;21.60;38.83
16100;BME280;8154;50.830;12.082;2023-11-19T05:16:20;98736.13;;;21.61;39.05
16100;BME280;8154;50.830;12.082;2023-11-19T05:18:48;98747.16;;;21.58;39.10
16100;BME280;8154;50.830;12.082;2023-11-19T05:21:16;98745.13;;;21.60;39.16
16100;BME280;8154;50.830;12.082;2023-11-19T05:23:50;98752.09;;;21.61;39.11
16100;BME280;8154;50.830;12.082;2023-11-19T05:26:20;98737.72;;;21.43;39.51
16100;BME280;8154;50.830;12.082;2023-11-19T05:28:49;98739.78;;;21.41;39.60
16100;BME280;8154;50.830;12.082;2023-11-19T05:31:19;98742.25;;;21.49;39.36
16100;BME280;8154;50.830;12.082;2023-11-19T05:33:47;98737.75;;;21.56;39.15
16100;BME280;8154;50.830;12.082;2023-11-19T05:36:13;98745.97;;;21.61;39.00
16100;BME280;8154;50.830;12.082;2023-11-19T05:38:40;98746.00;;;21.67;39.00
16100;BME280;8154;50.830;12.082;2023-11-19T05:41:06;98733.91;;;21.71;38.84
16100;BME280;8154;50.830;12.082;2023-11-19T05:43:32;98734.94;;;21.70;38.94
16100;BME280;8154;50.830;12.082;2023-11-19T05:45:59;98731.25;;;21.65;39.02
16100;BME280;8154;50.830;12.082;2023-11-19T05:48:27;98727.16;;;21.62;39.06
16100;BME280;8154;50.830;12.082;2023-11-19T05:50:54;98716.03;;;21.46;39.52
16100;BME280;8154;50.830;12.082;2023-11-19T05:53:20;98707.00;;;21.34;39.77
16100;BME280;8154;50.830;12.082;2023-11-19T05:55:46;98719.13;;;21.49;39.38
16100;BME280;8154;50.830;12.082;2023-11-19T05:58:23;98703.19;;;21.49;39.27
16100;BME280;8154;50.830;12.082;2023-11-19T06:00:52;98702.78;;;21.59;39.23
16100;BME280;8154;50.830;12.082;2023-11-19T06:03:18;98690.34;;;21.59;39.09
16100;BME280;8154;50.830;12.082;2023-11-19T06:05:45;98710.75;;;21.52;39.29
16100;BME280;8154;50.830;12.082;2023-11-19T06:08:13;98708.31;;;21.57;39.28
16100;BME280;8154;50.830;12.082;2023-11-19T06:10:41;98710.38;;;21.62;39.11
16100;BME280;8154;50.830;12.082;2023-11-19T06:13:07;98726.75;;;21.65;39.02
16100;BME280;8154;50.830;12.082;2023-11-19T06:15:36;98731.66;;;21.62;39.08
16100;BME280;8154;50.830;12.082;2023-11-19T06:18:02;98733.28;;;21.63;39.13
16100;BME280;8154;50.830;12.082;2023-11-19T06:20:30;98731.00;;;21.47;39.52
16100;BME280;8154;50.830;12.082;2023-11-19T06:22:57;98739.13;;;21.39;39.69
16100;BME280;8154;50.830;12.082;2023-11-19T06:25:25;98726.09;;;21.50;39.44
16100;BME280;8154;50.830;12.082;2023-11-19T06:27:52;98729.16;;;21.54;39.35
16100;BME280;8154;50.830;12.082;2023-11-19T06:30:19;98727.13;;;21.56;39.14
16100;BME280;8154;50.830;12.082;2023-11-19T06:32:46;98718.13;;;21.57;39.10
16100;BME280;8154;50.830;12.082;2023-11-19T06:35:12;98725.28;;;21.63;39.11
16100;BME280;8154;50.830;12.082;2023-11-19T06:37:40;98703.81;;;21.58;39.02
16100;BME280;8154;50.830;12.082;2023-11-19T06:40:09;98714.66;;;21.63;39.07
16100;BME280;8154;50.830;12.082;2023-11-19T06:42:36;98716.03;;;21.46;39.45
16100;BME280;8154;50.830;12.082;2023-11-19T06:45:03;98719.72;;;21.45;39.53
16100;BME280;8154;50.830;12.082;2023-11-19T06:47:29;98713.41;;;21.52;39.38
16100;BME280;8154;50.830;12.082;2023-11-19T06:49:55;98705.66;;;21.57;39.27
16100;BME280;8154;50.830;12.082;2023-11-19T06:52:22;98686.22;;;21.57;39.29
16100;BME280;8154;50.830;12.082;2023-11-19T06:54:49;98700.56;;;21.62;39.06
16100;BME280;8154;50.830;12.082;2023-11-19T06:57:15;98692.38;;;21.57;39.26
16100;BME280;8154;50.830;12.082;2023-11-19T06:59:43;98689.28;;;21.47;39.49
16100;BME280;8154;50.830;12.082;2023-11-19T07:02:10;98699.06;;;21.40;39.67
16100;BME280;8154;50.830;12.082;2023-11-19T07:04:36;98702.94;;;21.44;39.58
16100;BME280;8154;50.830;12.082;2023-11-19T07:07:03;98706.06;;;21.54;39.42
16100;BME280;8154;50.830;12.082;2023-11-19T07:09:31;98700.75;;;21.61;39.20
16100;BME280;8154;50.830;12.082;2023-11-19T07:11:58;98708.34;;;21.64;39.02
16100;BME280;8154;50.830;12.082;2023-11-19T07:14:26;98706.47;;;21.51;39.39
16100;BME280;8154;50.830;12.082;2023-11-19T07:16:52;98708.47;;;21.43;39.63
16100;BME280;8154;50.830;12.082;2023-11-19T07:19:19;98707.03;;;21.40;39.72
16100;BME280;8154;50.830;12.082;2023-11-19T07:21:46;98718.72;;;21.52;39.48
16100;BME280;8154;50.830;12.082;2023-11-19T07:24:12;98728.97;;;21.55;39.39
16100;BME280;8154;50.830;12.082;2023-11-19T07:26:44;98716.91;;;21.59;39.29
16100;BME280;8154;50.830;12.082;2023-11-19T07:29:10;98694.00;;;21.58;39.12
16100;BME280;8154;50.830;12.082;2023-11-19T07:31:36;98700.13;;;21.59;39.23
16100;BME280;8154;50.830;12.082;2023-11-19T07:34:04;98691.16;;;21.66;39.14
16100;BME280;8154;50.830;12.082;2023-11-19T07:36:32;98696.06;;;21.69;38.92
16100;BME280;8154;50.830;12.082;2023-11-19T07:38:58;98699.16;;;21.73;39.05
16100;BME280;8154;50.830;12.082;2023-11-19T07:41:25;98710.94;;;21.51;39.45
16100;BME280;8154;50.830;12.082;2023-11-19T07:43:51;98716.44;;;21.43;39.65
16100;BME280;8154;50.830;12.082;2023-11-19T07:46:18;98712.81;;;21.50;39.46
16100;BME280;8154;50.830;12.082;2023-11-19T07:48:47;98713.63;;;21.57;39.34
16100;BME280;8154;50.830;12.082;2023-11-19T07:51:14;98724.09;;;21.65;39.12
16100;BME280;8154;50.830;12.082;2023-11-19T07:53:41;98725.53;;;21.68;39.21
16100;BME280;8154;50.830;12.082;2023-11-19T07:56:08;98724.88;;;21.53;39.49
16100;BME280;8154;50.830;12.082;2023-11-19T07:58:34;98715.25;;;21.45;39.68
16100;BME280;8154;50.830;12.082;2023-11-19T08:01:02;98715.66;;;21.55;39.42
16100;BME280;8154;50.830;12.082;2023-11-19T08:03:29;98719.97;;;21.63;39.21
16100;BME280;8154;50.830;12.082;2023-11-19T08:05:57;98716.31;;;21.64;39.26
16100;BME280;8154;50.830;12.082;2023-11-19T08:08:23;98723.53;;;21.76;39.06
16100;BME280;8154;50.830;12.082;2023-11-19T08:10:49;98732.66;;;21.54;39.49
16100;BME280;8154;50.830;12.082;2023-11-19T08:13:19;98746.50;;;21.43;39.67
16100;BME280;8154;50.830;12.082;2023-11-19T08:15:46;98731.63;;;21.49;39.62
16100;BME280;8154;50.830;12.082;2023-11-19T08:18:14;98735.72;;;21.58;39.40
16100;BME280;8154;50.830;12.082;2023-11-19T08:20:40;98728.38;;;21.66;39.25
16100;BME280;8154;50.830;12.082;2023-11-19T08:23:07;98725.53;;;21.68;39.11
16100;BME280;8154;50.830;12.082;2023-11-19T08:25:33;98727.94;;;21.50;39.61
16100;BME280;8154;50.830;12.082;2023-11-19T08:28:00;98726.28;;;21.42;39.73
16100;BME280;8154;50.830;12.082;2023-11-19T08:30:27;98721.63;;;21.57;39.52
16100;BME280;8154;50.830;12.082;2023-11-19T08:32:54;98735.13;;;21.62;39.37
16100;BME280;8154;50.830;12.082;2023-11-19T08:35:20;98732.69;;;21.67;39.22
16100;BME280;8154;50.830;12.082;2023-11-19T08:37:46;98723.28;;;21.71;39.14
16100;BME280;8154;50.830;12.082;2023-11-19T08:40:12;98723.03;;;21.60;39.39
16100;BME280;8154;50.830;12.082;2023-11-19T08:42:40;98726.69;;;21.46;39.66
16100;BME280;8154;50.830;12.082;2023-11-19T08:45:07;98719.75;;;21.51;39.63
16100;BME280;8154;50.830;12.082;2023-11-19T08:47:36;98729.19;;;21.60;39.50
16100;BME280;8154;50.830;12.082;2023-11-19T08:50:03;98720.59;;;21.65;39.38
16100;BME280;8154;50.830;12.082;2023-11-19T08:52:30;98711.63;;;21.72;39.30
16100;BME280;8154;50.830;12.082;2023-11-19T08:54:57;98706.53;;;21.77;39.28
16100;BME280;8154;50.830;12.082;2023-11-19T08:57:24;98699.78;;;21.81;39.06
16100;BME280;8154;50.830;12.082;2023-11-19T08:59:50;98709.78;;;21.73;39.20
16100;BME280;8154;50.830;12.082;2023-11-19T09:02:16;98712.81;;;21.57;39.48
16100;BME280;8154;50.830;12.082;2023-11-19T09:04:44;98715.66;;;21.55;39.46
16100;BME280;8154;50.830;12.082;2023-11-19T09:07:11;98721.84;;;21.62;39.30
16100;BME280;8154;50.830;12.082;2023-11-19T09:09:38;98725.31;;;21.69;39.54
16100;BME280;8154;50.830;12.082;2023-11-19T09:12:04;98728.81;;;21.70;39.33
16100;BME280;8154;50.830;12.082;2023-11-19T09:14:31;98725.53;;;21.68;39.41
16100;BME280;8154;50.830;12.082;2023-11-19T09:16:58;98732.91;;;21.66;39.45
16100;BME280;8154;50.830;12.082;2023-11-19T09:19:25;98724.28;;;21.64;39.16
16100;BME280;8154;50.830;12.082;2023-11-19T09:21:53;98723.91;;;21.73;39.11
16100;BME280;8154;50.830;12.082;2023-11-19T09:24:19;98732.69;;;21.74;39.35
16100;BME280;8154;50.830;12.082;2023-11-19T09:26:45;98729.16;;;21.54;39.75
16100;BME280;8154;50.830;12.082;2023-11-19T09:29:11;98722.63;;;21.50;39.78
16100;BME280;8154;50.830;12.082;2023-11-19T09:31:40;98734.53;;;21.67;39.52
16100;BME280;8154;50.830;12.082;2023-11-19T09:34:06;98707.31;;;21.65;39.51
16100;BME280;8154;50.830;12.082;2023-11-19T09:36:32;98723.09;;;21.73;39.34
16100;BME280;8154;50.830;12.082;2023-11-19T09:38:59;98715.94;;;21.73;39.32
16100;BME280;8154;50.830;12.082;2023-11-19T09:41:27;98724.50;;;21.62;39.69
16100;BME280;8154;50.830;12.082;2023-11-19T09:43:54;98722.63;;;21.56;39.66
16100;BME280;8154;50.830;12.082;2023-11-19T09:46:22;98722.19;;;21.46;39.94
16100;BME280;8154;50.830;12.082;2023-11-19T09:48:52;98710.13;;;21.44;40.00
16100;BME280;8154;50.830;12.082;2023-11-19T09:51:20;98703.97;;;21.43;40.14
16100;BME280;8154;50.830;12.082;2023-11-19T09:53:48;98705.22;;;21.41;40.20
16100;BME280;8154;50.830;12.082;2023-11-19T09:56:15;98710.31;;;21.42;40.25
16100;BME280;8154;50.830;12.082;2023-11-19T09:58:43;98670.97;;;21.18;40.32
16100;BME280;8154;50.830;12.082;2023-11-19T10:01:10;98705.00;;;21.42;40.38
16100;BME280;8154;50.830;12.082;2023-11-19T10:03:39;98697.44;;;21.46;40.26
16100;BME280;8154;50.830;12.082;2023-11-19T10:06:10;98665.50;;;21.26;40.10
16100;BME280;8154;50.830;12.082;2023-11-19T10:08:39;98704.63;;;21.52;40.15
16100;BME280;8154;50.830;12.082;2023-11-19T10:11:06;98688.88;;;21.57;40.07
16100;BME280;8154;50.830;12.082;2023-11-19T10:13:35;98696.44;;;21.60;40.00
16100;BME280;8154;50.830;12.082;2023-11-19T10:16:14;98707.91;;;21.60;40.08
16100;BME280;8154;50.830;12.082;2023-11-19T10:18:48;98710.16;;;21.63;39.92
16100;BME280;8154;50.830;12.082;2023-11-19T10:21:19;98708.94;;;21.72;39.78
16100;BME280;8154;50.830;12.082;2023-11-19T10:23:51;98726.41;;;21.75;39.83
16100;BME280;8154;50.830;12.082;2023-11-19T10:26:19;98719.78;;;21.64;39.94
16100;BME280;8154;50.830;12.082;2023-11-19T10:28:47;98719.97;;;21.63;40.08
16100;BME280;8154;50.830;12.082;2023-11-19T10:31:17;98740.66;;;21.61;40.36
16100;BME280;8154;50.830;12.082;2023-11-19T10:33:45;98714.03;;;21.54;40.12
16100;BME280;8154;50.830;12.082;2023-11-19T10:36:12;98721.03;;;21.68;40.05
16100;BME280;8154;50.830;12.082;2023-11-19T10:38:39;98732.31;;;21.77;39.99
16100;BME280;8154;50.830;12.082;2023-11-19T10:41:07;98720.41;;;21.73;39.97
16100;BME280;8154;50.830;12.082;2023-11-19T10:43:43;98731.88;;;21.73;39.89
16100;BME280;8154;50.830;12.082;2023-11-19T10:46:14;98722.09;;;21.80;39.75
16100;BME280;8154;50.830;12.082;2023-11-19T10:48:40;98715.56;;;21.83;39.67
16100;BME280;8154;50.830;12.082;2023-11-19T10:51:09;98717.00;;;21.85;39.68
16100;BME280;8154;50.830;12.082;2023-11-19T10:53:38;98717.00;;;21.85;39.76
16100;BME280;8154;50.830;12.082;2023-11-19T10:56:10;98726.41;;;21.88;39.48
16100;BME280;8154;50.830;12.082;2023-11-19T10:58:56;98716.59;;;21.88;39.78
16100;BME280;8154;50.830;12.082;2023-11-19T11:01:43;98723.34;;;21.91;39.62
16100;BME280;8154;50.830;12.082;2023-11-19T11:04:19;98716.78;;;21.80;39.78
16100;BME280;8154;50.830;12.082;2023-11-19T11:06:48;98732.13;;;21.85;39.65
16100;BME280;8154;50.830;12.082;2023-11-19T11:09:16;98728.06;;;21.89;39.64
16100;BME280;8154;50.830;12.082;2023-11-19T11:11:46;98725.16;;;21.77;39.85
16100;BME280;8154;50.830;12.082;2023-11-19T11:14:14;98723.09;;;21.73;39.88
16100;BME280;8154;50.830;12.082;2023-11-19T11:16:42;98726.00;;;21.84;39.84
16100;BME280;8154;50.830;12.082;2023-11-19T11:19:12;98733.78;;;21.86;39.78
16100;BME280;8154;50.830;12.082;2023-11-19T11:21:40;98740.53;;;21.88;39.70
16100;BME280;8154;50.830;12.082;2023-11-19T11:32:33;98745.22;;;21.86;39.74
16100;BME280;8154;50.830;12.082;2023-11-19T11:38:03;98740.94;;;21.98;39.53
16100;BME280;8154;50.830;12.082;2023-11-19T11:40:30;98743.19;;;21.88;39.64
16100;BME280;8154;50.830;12.082;2023-11-19T11:42:57;98736.00;;;21.76;39.96
16100;BME280;8154;50.830;12.082;2023-11-19T11:45:39;98732.13;;;21.78;39.90
16100;BME280;8154;50.830;12.082;2023-11-19T11:48:11;98732.75;;;21.80;39.77
16100;BME280;8154;50.830;12.082;2023-11-19T11:51:07;98736.44;;;21.92;39.63
16100;BME280;8154;50.830;12.082;2023-11-19T11:53:34;98731.13;;;21.92;39.54
16100;BME280;8154;50.830;12.082;2023-11-19T11:56:20;98752.78;;;21.76;39.97
16100;BME280;8154;50.830;12.082;2023-11-19T11:59:18;98755.19;;;21.71;40.08
16100;BME280;8154;50.830;12.082;2023-11-19T12:01:58;98764.25;;;21.83;39.71
16100;BME280;8154;50.830;12.082;2023-11-19T12:04:28;98753.44;;;21.91;39.58
16100;BME280;8154;50.830;12.082;2023-11-19T12:07:09;98753.84;;;21.95;39.48
16100;BME280;8154;50.830;12.082;2023-11-19T12:10:08;98756.28;;;21.90;39.66
16100;BME280;8154;50.830;12.082;2023-11-19T12:12:59;98749.72;;;21.79;39.90
16100;BME280;8154;50.830;12.082;2023-11-19T12:15:26;98751.78;;;21.84;39.78
16100;BME280;8154;50.830;12.082;2023-11-19T12:18:03;98746.47;;;21.90;39.66
16100;BME280;8154;50.830;12.082;2023-11-19T12:20:47;98736.66;;;21.97;39.51
16100;BME280;8154;50.830;12.082;2023-11-19T12:23:33;98749.34;;;21.95;39.43
16100;BME280;8154;50.830;12.082;2023-11-19T12:26:00;98733.56;;;21.81;39.63
16100;BME280;8154;50.830;12.082;2023-11-19T12:28:28;98736.63;;;21.78;39.82
16100;BME280;8154;50.830;12.082;2023-11-19T12:31:07;98743.41;;;21.87;39.68
16100;BME280;8154;50.830;12.082;2023-11-19T12:33:36;98740.13;;;21.91;39.61
16100;BME280;8154;50.830;12.082;2023-11-19T12:36:03;98745.66;;;21.90;39.70
16100;BME280;8154;50.830;12.082;2023-11-19T12:38:32;98744.41;;;21.92;39.51
16100;BME280;8154;50.830;12.082;2023-11-19T12:41:07;98746.88;;;21.81;39.79
16100;BME280;8154;50.830;12.082;2023-11-19T12:43:34;98749.72;;;21.79;39.80
16100;BME280;8154;50.830;12.082;2023-11-19T12:46:02;98754.66;;;21.89;39.58
16100;BME280;8154;50.830;12.082;2023-11-19T12:48:29;98742.38;;;21.94;39.42
16100;BME280;8154;50.830;12.082;2023-11-19T12:50:56;98745.66;;;21.96;39.48
16100;BME280;8154;50.830;12.082;2023-11-19T12:53:24;98738.09;;;22.00;39.30
16100;BME280;8154;50.830;12.082;2023-11-19T12:55:52;98738.91;;;21.87;39.71
16100;BME280;8154;50.830;12.082;2023-11-19T12:58:35;98737.84;;;21.82;39.79
16100;BME280;8154;50.830;12.082;2023-11-19T13:01:09;98736.44;;;21.79;39.58
16100;BME280;8154;50.830;12.082;2023-11-19T13:03:39;98736.84;;;21.89;39.61
16100;BME280;8154;50.830;12.082;2023-11-19T13:06:06;98742.78;;;21.91;39.60
16100;BME280;8154;50.830;12.082;2023-11-19T13:08:45;98738.09;;;21.93;39.56
16100;BME280;8154;50.830;12.082;2023-11-19T13:11:12;98741.56;;;21.94;39.64
16100;BME280;8154;50.830;12.082;2023-11-19T13:13:58;98737.25;;;21.93;39.61
16100;BME280;8154;50.830;12.082;2023-11-19T13:16:26;98729.25;;;21.80;39.81
16100;BME280;8154;50.830;12.082;2023-11-19T13:18:53;98727.97;;;21.69;40.13
16100;BME280;8154;50.830;12.082;2023-11-19T13:21:19;98732.34;;;21.83;39.78